sensor_id;sensor_type;location;lat;lon;timestamp;pressure;altitude;pressure_sealevel;temperature;humidity
59519;BME280;46994;54.976;73.404;2022-07-21T00:00:24;98542.72;;;17.35;75.63
59519;BME280;46994;54.976;73.404;2022-07-21T00:02:51;98557.59;;;17.32;76.13
59519;BME280;46994;54.976;73.404;2022-07-21T00:05:19;98541.97;;;17.02;76.85
59519;BME280;46994;54.976;73.404;2022-07-21T00:07:46;98524.19;;;16.79;77.65
59519;BME280;46994;54.976;73.404;2022-07-21T00:10:14;98547.47;;;16.80;78.19
59519;BME280;46994;54.976;73.404;2022-07-21T00:12:41;98556.97;;;16.83;78.57
59519;BME280;46994;54.976;73.404;2022-07-21T00:15:09;98543.81;;;16.64;79.46
59519;BME280;46994;54.976;73.404;2022-07-21T00:17:36;98566.19;;;16.82;79.66
59519;BME280;46994;54.976;73.404;2022-07-21T00:20:04;98558.28;;;16.75;79.63
59519;BME280;46994;54.976;73.404;2022-07-21T00:22:31;98547.25;;;16.82;79.52
59519;BME280;46994;54.976;73.404;2022-07-21T00:24:58;98578.31;;;17.11;79.12
59519;BME280;46994;54.976;73.404;2022-07-21T00:27:25;98573.66;;;17.07;78.89
59519;BME280;46994;54.976;73.404;2022-07-21T00:29:52;98572.38;;;17.14;78.98
59519;BME280;46994;54.976;73.404;2022-07-21T00:32:19;98555.00;;;17.10;78.92
59519;BME280;46994;54.976;73.404;2022-07-21T00:34:46;98567.28;;;17.28;79.22
59519;BME280;46994;54.976;73.404;2022-07-21T00:37:13;98565.44;;;17.34;78.23
59519;BME280;46994;54.976;73.404;2022-07-21T00:39:40;98568.13;;;17.29;78.28
59519;BME280;46994;54.976;73.404;2022-07-21T00:42:06;98554.81;;;17.22;78.62
59519;BME280;46994;54.976;73.404;2022-07-21T00:44:33;98557.88;;;17.36;78.83
59519;BME280;46994;54.976;73.404;2022-07-21T00:47:00;98571.53;;;17.56;78.16
59519;BME280;46994;54.976;73.404;2022-07-21T00:49:27;98570.56;;;17.72;77.78
59519;BME280;46994;54.976;73.404;2022-07-21T00:51:54;98550.81;;;17.82;76.89
59519;BME280;46994;54.976;73.404;2022-07-21T00:54:21;98571.19;;;17.95;76.57
59519;BME280;46994;54.976;73.404;2022-07-21T00:56:47;98552.72;;;17.87;76.42
59519;BME280;46994;54.976;73.404;2022-07-21T00:59:14;98582.06;;;18.00;76.44
59519;BME280;46994;54.976;73.404;2022-07-21T01:01:41;98544.59;;;17.87;76.91
59519;BME280;46994;54.976;73.404;2022-07-21T01:04:08;98570.47;;;18.25;76.11
59519;BME280;46994;54.976;73.404;2022-07-21T01:06:35;98552.59;;;18.29;75.15
59519;BME280;46994;54.976;73.404;2022-07-21T01:09:02;98559.38;;;18.47;74.79
59519;BME280;46994;54.976;73.404;2022-07-21T01:11:30;98565.38;;;18.59;74.12
59519;BME280;46994;54.976;73.404;2022-07-21T01:13:57;98546.91;;;18.61;73.88
59519;BME280;46994;54.976;73.404;2022-07-21T01:16:24;98563.78;;;18.68;73.84
59519;BME280;46994;54.976;73.404;2022-07-21T01:18:51;98553.75;;;18.69;73.99
59519;BME280;46994;54.976;73.404;2022-07-21T01:21:38;98555.91;;;18.72;73.84
59519;BME280;46994;54.976;73.404;2022-07-21T01:24:07;98535.00;;;18.82;73.02
59519;BME280;46994;54.976;73.404;2022-07-21T01:26:46;98558.34;;;19.04;73.09
59519;BME280;46994;54.976;73.404;2022-07-21T01:29:14;98538.53;;;18.93;72.87
59519;BME280;46994;54.976;73.404;2022-07-21T01:31:44;98561.31;;;19.02;73.04
59519;BME280;46994;54.976;73.404;2022-07-21T01:34:12;98545.31;;;19.01;72.62
59519;BME280;46994;54.976;73.404;2022-07-21T01:36:39;98559.94;;;19.15;72.59
59519;BME280;46994;54.976;73.404;2022-07-21T01:39:07;98547.44;;;19.14;71.91
59519;BME280;46994;54.976;73.404;2022-07-21T01:41:52;98563.19;;;19.22;71.72
59519;BME280;46994;54.976;73.404;2022-07-21T01:44:19;98542.88;;;18.99;72.13
59519;BME280;46994;54.976;73.404;2022-07-21T01:46:51;98533.91;;;18.94;72.83
59519;BME280;46994;54.976;73.404;2022-07-21T01:49:19;98539.56;;;19.07;72.43
59519;BME280;46994;54.976;73.404;2022-07-21T01:51:47;98549.56;;;19.42;71.30
59519;BME280;46994;54.976;73.404;2022-07-21T01:54:14;98541.28;;;19.88;69.64
59519;BME280;46994;54.976;73.404;2022-07-21T01:56:41;98544.84;;;20.33;67.88
59519;BME280;46994;54.976;73.404;2022-07-21T01:59:08;98549.06;;;20.54;67.41
59519;BME280;46994;54.976;73.404;2022-07-21T02:01:35;98553.75;;;20.49;67.29
59519;BME280;46994;54.976;73.404;2022-07-21T02:04:03;98560.56;;;20.85;66.94
59519;BME280;46994;54.976;73.404;2022-07-21T02:06:31;98572.09;;;21.06;66.43
59519;BME280;46994;54.976;73.404;2022-07-21T02:08:58;98573.38;;;20.80;66.33
59519;BME280;46994;54.976;73.404;2022-07-21T02:11:25;98576.53;;;20.58;66.78
59519;BME280;46994;54.976;73.404;2022-07-21T02:13:52;98577.44;;;20.48;67.60
59519;BME280;46994;54.976;73.404;2022-07-21T02:16:19;98578.69;;;20.61;66.63
59519;BME280;46994;54.976;73.404;2022-07-21T02:18:46;98558.66;;;20.47;67.13
59519;BME280;46994;54.976;73.404;2022-07-21T02:21:15;98585.13;;;21.09;65.61
59519;BME280;46994;54.976;73.404;2022-07-21T02:23:42;98566.88;;;21.39;64.38
59519;BME280;46994;54.976;73.404;2022-07-21T02:26:09;98579.66;;;21.67;63.29
59519;BME280;46994;54.976;73.404;2022-07-21T02:28:36;98563.56;;;21.90;62.63
59519;BME280;46994;54.976;73.404;2022-07-21T02:31:02;98556.25;;;22.09;61.64
59519;BME280;46994;54.976;73.404;2022-07-21T02:33:29;98586.91;;;22.44;60.95
59519;BME280;46994;54.976;73.404;2022-07-21T02:35:56;98582.91;;;22.55;60.60
59519;BME280;46994;54.976;73.404;2022-07-21T02:38:23;98588.13;;;22.70;59.98
59519;BME280;46994;54.976;73.404;2022-07-21T02:41:08;98593.88;;;22.69;59.88
59519;BME280;46994;54.976;73.404;2022-07-21T02:43:35;98586.19;;;21.90;61.44
59519;BME280;46994;54.976;73.404;2022-07-21T02:46:02;98586.25;;;21.37;63.64
59519;BME280;46994;54.976;73.404;2022-07-21T02:48:28;98594.81;;;21.20;64.18
59519;BME280;46994;54.976;73.404;2022-07-21T02:50:55;98605.69;;;21.26;64.65
59519;BME280;46994;54.976;73.404;2022-07-21T02:53:22;98581.69;;;20.94;65.22
59519;BME280;46994;54.976;73.404;2022-07-21T02:55:51;98594.00;;;20.91;65.47
59519;BME280;46994;54.976;73.404;2022-07-21T02:58:23;98585.00;;;20.90;65.66
59519;BME280;46994;54.976;73.404;2022-07-21T03:00:59;98612.34;;;21.14;65.66
59519;BME280;46994;54.976;73.404;2022-07-21T03:03:28;98605.13;;;21.24;65.42
59519;BME280;46994;54.976;73.404;2022-07-21T03:05:56;98579.56;;;21.19;65.06
59519;BME280;46994;54.976;73.404;2022-07-21T03:08:24;98600.19;;;21.60;64.14
59519;BME280;46994;54.976;73.404;2022-07-21T03:10:51;98578.72;;;21.53;63.41
59519;BME280;46994;54.976;73.404;2022-07-21T03:13:18;98605.53;;;21.46;63.78
59519;BME280;46994;54.976;73.404;2022-07-21T03:15:45;98609.53;;;21.54;64.01
59519;BME280;46994;54.976;73.404;2022-07-21T03:18:12;98583.19;;;21.68;63.32
59519;BME280;46994;54.976;73.404;2022-07-21T03:20:40;98591.09;;;21.93;62.82
59519;BME280;46994;54.976;73.404;2022-07-21T03:23:07;98589.25;;;22.31;61.31
59519;BME280;46994;54.976;73.404;2022-07-21T03:25:35;98607.84;;;22.67;60.16
59519;BME280;46994;54.976;73.404;2022-07-21T03:28:02;98592.88;;;22.65;60.12
59519;BME280;46994;54.976;73.404;2022-07-21T03:30:29;98589.84;;;22.66;59.67
59519;BME280;46994;54.976;73.404;2022-07-21T03:32:58;98593.19;;;22.44;59.40
59519;BME280;46994;54.976;73.404;2022-07-21T03:35:25;98611.94;;;22.08;61.14
59519;BME280;46994;54.976;73.404;2022-07-21T03:37:55;98602.81;;;21.94;61.78
59519;BME280;46994;54.976;73.404;2022-07-21T03:40:24;98610.34;;;22.26;61.11
59519;BME280;46994;54.976;73.404;2022-07-21T03:42:54;98585.25;;;22.00;61.86
59519;BME280;46994;54.976;73.404;2022-07-21T03:45:22;98598.09;;;22.23;61.07
59519;BME280;46994;54.976;73.404;2022-07-21T03:47:49;98616.78;;;22.35;60.69
59519;BME280;46994;54.976;73.404;2022-07-21T03:50:16;98611.63;;;22.33;60.94
59519;BME280;46994;54.976;73.404;2022-07-21T03:52:50;98619.56;;;22.49;60.27
59519;BME280;46994;54.976;73.404;2022-07-21T03:55:17;98605.03;;;22.35;61.24
59519;BME280;46994;54.976;73.404;2022-07-21T03:57:48;98594.19;;;22.48;60.39
59519;BME280;46994;54.976;73.404;2022-07-21T04:00:29;98589.69;;;22.57;60.48
59519;BME280;46994;54.976;73.404;2022-07-21T04:02:57;98583.47;;;22.71;59.99
59519;BME280;46994;54.976;73.404;2022-07-21T04:05:24;98605.97;;;23.00;60.21
59519;BME280;46994;54.976;73.404;2022-07-21T04:07:52;98606.00;;;22.81;60.34
59519;BME280;46994;54.976;73.404;2022-07-21T04:10:22;98595.47;;;22.56;61.43
59519;BME280;46994;54.976;73.404;2022-07-21T04:12:51;98611.44;;;23.00;60.27
59519;BME280;46994;54.976;73.404;2022-07-21T04:15:18;98604.94;;;23.15;59.84
59519;BME280;46994;54.976;73.404;2022-07-21T04:17:45;98586.06;;;23.32;58.85
59519;BME280;46994;54.976;73.404;2022-07-21T04:20:13;98606.50;;;23.48;58.96
59519;BME280;46994;54.976;73.404;2022-07-21T04:22:42;98588.66;;;23.24;59.16
59519;BME280;46994;54.976;73.404;2022-07-21T04:25:10;98605.25;;;23.27;59.28
59519;BME280;46994;54.976;73.404;2022-07-21T04:27:38;98575.81;;;23.24;58.97
59519;BME280;46994;54.976;73.404;2022-07-21T04:30:07;98596.00;;;23.56;58.23
59519;BME280;46994;54.976;73.404;2022-07-21T04:32:34;98584.91;;;23.66;58.22
59519;BME280;46994;54.976;73.404;2022-07-21T04:35:01;98603.16;;;23.84;57.96
59519;BME280;46994;54.976;73.404;2022-07-21T04:37:28;98584.09;;;23.65;57.87
59519;BME280;46994;54.976;73.404;2022-07-21T04:39:55;98612.06;;;23.90;57.63
59519;BME280;46994;54.976;73.404;2022-07-21T04:42:22;98593.13;;;23.93;57.35
59519;BME280;46994;54.976;73.404;2022-07-21T04:44:49;98607.81;;;23.70;57.19
59519;BME280;46994;54.976;73.404;2022-07-21T04:47:16;98611.81;;;23.59;58.22
59519;BME280;46994;54.976;73.404;2022-07-21T04:49:42;98587.84;;;23.23;58.02
59519;BME280;46994;54.976;73.404;2022-07-21T04:52:10;98594.94;;;23.24;58.21
59519;BME280;46994;54.976;73.404;2022-07-21T04:54:37;98607.56;;;23.20;58.35
59519;BME280;46994;54.976;73.404;2022-07-21T04:57:04;98579.41;;;23.06;58.71
59519;BME280;46994;54.976;73.404;2022-07-21T04:59:32;98605.00;;;23.42;58.23
59519;BME280;46994;54.976;73.404;2022-07-21T05:02:00;98591.53;;;23.46;57.76
59519;BME280;46994;54.976;73.404;2022-07-21T05:04:27;98595.75;;;23.71;57.09
59519;BME280;46994;54.976;73.404;2022-07-21T05:06:54;98606.69;;;23.98;56.71
59519;BME280;46994;54.976;73.404;2022-07-21T05:09:20;98610.50;;;24.25;56.08
59519;BME280;46994;54.976;73.404;2022-07-21T05:11:47;98594.28;;;24.42;55.12
59519;BME280;46994;54.976;73.404;2022-07-21T05:14:14;98604.78;;;24.63;54.96
59519;BME280;46994;54.976;73.404;2022-07-21T05:16:42;98594.75;;;24.58;54.72
59519;BME280;46994;54.976;73.404;2022-07-21T05:19:10;98621.97;;;24.77;54.48
59519;BME280;46994;54.976;73.404;2022-07-21T05:21:37;98615.00;;;24.71;54.29
59519;BME280;46994;54.976;73.404;2022-07-21T05:24:04;98619.91;;;24.60;54.99
59519;BME280;46994;54.976;73.404;2022-07-21T05:26:31;98621.63;;;24.56;54.36
59519;BME280;46994;54.976;73.404;2022-07-21T05:28:57;98615.16;;;24.52;54.79
59519;BME280;46994;54.976;73.404;2022-07-21T05:31:24;98613.84;;;24.49;53.98
59519;BME280;46994;54.976;73.404;2022-07-21T05:33:51;98604.94;;;24.30;54.57
59519;BME280;46994;54.976;73.404;2022-07-21T05:36:18;98601.59;;;24.33;54.67
59519;BME280;46994;54.976;73.404;2022-07-21T05:38:45;98613.28;;;24.39;54.77
59519;BME280;46994;54.976;73.404;2022-07-21T05:41:11;98595.09;;;24.29;55.12
59519;BME280;46994;54.976;73.404;2022-07-21T05:43:38;98594.38;;;24.37;54.53
59519;BME280;46994;54.976;73.404;2022-07-21T05:46:05;98591.94;;;24.49;54.25
59519;BME280;46994;54.976;73.404;2022-07-21T05:48:32;98588.75;;;24.56;54.19
59519;BME280;46994;54.976;73.404;2022-07-21T05:50:59;98598.91;;;24.92;53.51
59519;BME280;46994;54.976;73.404;2022-07-21T05:53:25;98606.00;;;24.93;53.30
59519;BME280;46994;54.976;73.404;2022-07-21T05:55:52;98612.28;;;24.93;53.24
59519;BME280;46994;54.976;73.404;2022-07-21T05:58:19;98608.81;;;24.79;53.66
59519;BME280;46994;54.976;73.404;2022-07-21T06:00:51;98598.69;;;24.66;53.87
59519;BME280;46994;54.976;73.404;2022-07-21T06:03:37;98599.56;;;24.75;53.52
59519;BME280;46994;54.976;73.404;2022-07-21T06:06:05;98614.13;;;24.84;53.20
59519;BME280;46994;54.976;73.404;2022-07-21T06:08:32;98608.41;;;24.94;52.97
59519;BME280;46994;54.976;73.404;2022-07-21T06:10:59;98598.56;;;24.93;52.66
59519;BME280;46994;54.976;73.404;2022-07-21T06:13:25;98588.00;;;25.00;52.54
59519;BME280;46994;54.976;73.404;2022-07-21T06:15:53;98597.78;;;25.15;51.03
59519;BME280;46994;54.976;73.404;2022-07-21T06:18:20;98596.81;;;24.97;52.02
59519;BME280;46994;54.976;73.404;2022-07-21T06:20:47;98617.19;;;25.19;51.98
59519;BME280;46994;54.976;73.404;2022-07-21T06:23:14;98605.41;;;25.18;51.76
59519;BME280;46994;54.976;73.404;2022-07-21T06:25:40;98594.66;;;25.30;51.37
59519;BME280;46994;54.976;73.404;2022-07-21T06:28:07;98588.44;;;25.38;50.73
59519;BME280;46994;54.976;73.404;2022-07-21T06:30:34;98575.84;;;25.46;50.41
59519;BME280;46994;54.976;73.404;2022-07-21T06:33:01;98602.03;;;25.83;50.37
59519;BME280;46994;54.976;73.404;2022-07-21T06:35:27;98576.94;;;25.67;50.25
59519;BME280;46994;54.976;73.404;2022-07-21T06:37:54;98590.13;;;25.88;49.90
59519;BME280;46994;54.976;73.404;2022-07-21T06:40:21;98593.53;;;26.02;49.97
59519;BME280;46994;54.976;73.404;2022-07-21T06:42:48;98592.06;;;25.87;49.24
59519;BME280;46994;54.976;73.404;2022-07-21T06:45:15;98591.47;;;25.68;49.40
59519;BME280;46994;54.976;73.404;2022-07-21T06:47:42;98575.06;;;25.77;49.75
59519;BME280;46994;54.976;73.404;2022-07-21T06:50:09;98588.72;;;25.68;50.32
59519;BME280;46994;54.976;73.404;2022-07-21T06:52:37;98581.91;;;25.65;49.49
59519;BME280;46994;54.976;73.404;2022-07-21T06:55:06;98569.84;;;25.66;48.99
59519;BME280;46994;54.976;73.404;2022-07-21T06:57:35;98579.28;;;25.83;49.11
59519;BME280;46994;54.976;73.404;2022-07-21T07:00:06;98574.50;;;25.97;48.24
59519;BME280;46994;54.976;73.404;2022-07-21T07:02:34;98589.72;;;26.20;47.21
59519;BME280;46994;54.976;73.404;2022-07-21T07:05:00;98575.97;;;26.20;47.45
59519;BME280;46994;54.976;73.404;2022-07-21T07:07:27;98562.69;;;26.05;46.29
59519;BME280;46994;54.976;73.404;2022-07-21T07:09:56;98565.72;;;25.95;46.60
59519;BME280;46994;54.976;73.404;2022-07-21T07:12:23;98599.06;;;26.11;47.86
59519;BME280;46994;54.976;73.404;2022-07-21T07:14:50;98562.56;;;26.10;46.73
59519;BME280;46994;54.976;73.404;2022-07-21T07:17:17;98548.66;;;26.15;46.89
59519;BME280;46994;54.976;73.404;2022-07-21T07:19:47;98553.03;;;26.34;46.82
59519;BME280;46994;54.976;73.404;2022-07-21T07:22:15;98556.66;;;26.60;46.84
59519;BME280;46994;54.976;73.404;2022-07-21T07:24:42;98544.53;;;26.52;46.54
59519;BME280;46994;54.976;73.404;2022-07-21T07:27:09;98558.25;;;26.35;47.17
59519;BME280;46994;54.976;73.404;2022-07-21T07:29:35;98536.81;;;25.80;47.50
59519;BME280;46994;54.976;73.404;2022-07-21T07:32:02;98540.34;;;25.41;48.24
59519;BME280;46994;54.976;73.404;2022-07-21T07:34:29;98538.06;;;25.03;48.65
59519;BME280;46994;54.976;73.404;2022-07-21T07:36:56;98561.09;;;25.02;49.92
59519;BME280;46994;54.976;73.404;2022-07-21T07:39:22;98563.22;;;25.05;49.90
59519;BME280;46994;54.976;73.404;2022-07-21T07:41:49;98554.34;;;24.86;49.76
59519;BME280;46994;54.976;73.404;2022-07-21T07:44:16;98560.78;;;24.81;50.58
59519;BME280;46994;54.976;73.404;2022-07-21T07:46:42;98572.41;;;24.87;49.73
59519;BME280;46994;54.976;73.404;2022-07-21T07:49:09;98556.78;;;24.65;50.48
59519;BME280;46994;54.976;73.404;2022-07-21T07:51:36;98583.59;;;24.54;51.78
59519;BME280;46994;54.976;73.404;2022-07-21T07:54:03;98597.97;;;24.10;53.59
59519;BME280;46994;54.976;73.404;2022-07-21T07:56:30;98615.28;;;23.78;54.19
59519;BME280;46994;54.976;73.404;2022-07-21T07:58:57;98623.97;;;23.53;55.60
59519;BME280;46994;54.976;73.404;2022-07-21T08:01:24;98634.63;;;23.22;56.04
59519;BME280;46994;54.976;73.404;2022-07-21T08:03:51;98605.94;;;22.86;56.15
59519;BME280;46994;54.976;73.404;2022-07-21T08:06:17;98598.31;;;22.83;57.16
59519;BME280;46994;54.976;73.404;2022-07-21T08:08:44;98604.53;;;22.89;57.61
59519;BME280;46994;54.976;73.404;2022-07-21T08:11:11;98597.75;;;23.19;57.59
59519;BME280;46994;54.976;73.404;2022-07-21T08:13:39;98604.00;;;23.52;56.91
59519;BME280;46994;54.976;73.404;2022-07-21T08:16:06;98600.91;;;23.86;56.79
59519;BME280;46994;54.976;73.404;2022-07-21T08:18:33;98617.63;;;23.98;57.11
59519;BME280;46994;54.976;73.404;2022-07-21T08:21:00;98622.38;;;24.07;56.04
59519;BME280;46994;54.976;73.404;2022-07-21T08:23:27;98621.56;;;24.06;57.14
59519;BME280;46994;54.976;73.404;2022-07-21T08:25:54;98609.63;;;23.88;57.01
59519;BME280;46994;54.976;73.404;2022-07-21T08:28:21;98617.72;;;24.07;57.64
59519;BME280;46994;54.976;73.404;2022-07-21T08:30:48;98617.53;;;24.31;57.16
59519;BME280;46994;54.976;73.404;2022-07-21T08:33:15;98600.00;;;24.32;56.78
59519;BME280;46994;54.976;73.404;2022-07-21T08:35:41;98607.41;;;24.31;56.80
59519;BME280;46994;54.976;73.404;2022-07-21T08:38:09;98596.00;;;24.38;56.16
59519;BME280;46994;54.976;73.404;2022-07-21T08:40:40;98621.03;;;24.59;55.64
59519;BME280;46994;54.976;73.404;2022-07-21T08:43:07;98605.66;;;24.49;55.76
59519;BME280;46994;54.976;73.404;2022-07-21T08:45:36;98605.13;;;24.47;55.38
59519;BME280;46994;54.976;73.404;2022-07-21T08:48:04;98620.28;;;24.67;54.80
59519;BME280;46994;54.976;73.404;2022-07-21T08:50:34;98599.56;;;24.75;54.65
59519;BME280;46994;54.976;73.404;2022-07-21T08:53:02;98609.34;;;25.34;53.47
59519;BME280;46994;54.976;73.404;2022-07-21T08:55:33;98598.38;;;25.57;53.24
59519;BME280;46994;54.976;73.404;2022-07-21T08:58:01;98602.22;;;25.87;52.60
59519;BME280;46994;54.976;73.404;2022-07-21T09:00:29;98604.22;;;26.12;51.19
59519;BME280;46994;54.976;73.404;2022-07-21T09:06:04;98581.69;;;26.41;50.32
59519;BME280;46994;54.976;73.404;2022-07-21T09:08:38;98586.41;;;26.67;49.67
59519;BME280;46994;54.976;73.404;2022-07-21T09:11:22;98600.94;;;26.93;48.79
59519;BME280;46994;54.976;73.404;2022-07-21T09:14:13;98590.44;;;26.95;48.42
59519;BME280;46994;54.976;73.404;2022-07-21T09:16:42;98575.72;;;26.82;48.62
59519;BME280;46994;54.976;73.404;2022-07-21T09:19:28;98595.13;;;26.69;49.03
59519;BME280;46994;54.976;73.404;2022-07-21T09:22:00;98588.59;;;26.30;48.79
59519;BME280;46994;54.976;73.404;2022-07-21T09:24:35;98594.84;;;25.96;49.74
59519;BME280;46994;54.976;73.404;2022-07-21T09:32:23;98599.44;;;25.78;50.42
59519;BME280;46994;54.976;73.404;2022-07-21T09:37:21;98599.97;;;25.58;52.32
59519;BME280;46994;54.976;73.404;2022-07-21T09:39:53;98591.97;;;25.39;51.32
59519;BME280;46994;54.976;73.404;2022-07-21T09:42:29;98596.81;;;25.42;51.96
59519;BME280;46994;54.976;73.404;2022-07-21T09:45:00;98574.88;;;25.42;51.42
59519;BME280;46994;54.976;73.404;2022-07-21T09:47:29;98569.88;;;25.44;51.48
59519;BME280;46994;54.976;73.404;2022-07-21T09:49:58;98587.56;;;25.60;51.80
59519;BME280;46994;54.976;73.404;2022-07-21T09:54:54;98551.03;;;25.51;51.54
59519;BME280;46994;54.976;73.404;2022-07-21T09:57:21;98589.97;;;25.93;51.29
59519;BME280;46994;54.976;73.404;2022-07-21T09:59:49;98583.38;;;26.11;50.63
59519;BME280;46994;54.976;73.404;2022-07-21T10:02:20;98582.75;;;26.14;50.10
59519;BME280;46994;54.976;73.404;2022-07-21T10:05:00;98582.44;;;26.07;49.44
59519;BME280;46994;54.976;73.404;2022-07-21T10:07:29;98579.66;;;25.98;48.78
59519;BME280;46994;54.976;73.404;2022-07-21T10:09:56;98545.72;;;26.03;49.34
59519;BME280;46994;54.976;73.404;2022-07-21T10:12:25;98570.50;;;26.29;48.58
59519;BME280;46994;54.976;73.404;2022-07-21T10:14:53;98566.28;;;26.31;48.63
59519;BME280;46994;54.976;73.404;2022-07-21T10:17:21;98566.50;;;26.44;48.76
59519;BME280;46994;54.976;73.404;2022-07-21T10:20:05;98559.25;;;26.56;47.44
59519;BME280;46994;54.976;73.404;2022-07-21T10:25:02;98565.56;;;26.66;45.84
59519;BME280;46994;54.976;73.404;2022-07-21T10:27:29;98566.03;;;26.59;40.36
59519;BME280;46994;54.976;73.404;2022-07-21T10:30:04;98561.19;;;26.47;41.76
59519;BME280;46994;54.976;73.404;2022-07-21T10:32:34;98568.09;;;26.36;39.72
59519;BME280;46994;54.976;73.404;2022-07-21T10:35:29;98562.91;;;26.35;41.28
59519;BME280;46994;54.976;73.404;2022-07-21T10:38:00;98560.31;;;26.29;41.18
59519;BME280;46994;54.976;73.404;2022-07-21T10:45:39;98549.22;;;26.69;38.21
59519;BME280;46994;54.976;73.404;2022-07-21T10:48:08;98572.47;;;26.54;40.15
59519;BME280;46994;54.976;73.404;2022-07-21T10:50:57;98561.28;;;26.16;38.81
59519;BME280;46994;54.976;73.404;2022-07-21T10:53:24;98578.22;;;26.10;40.92
59519;BME280;46994;54.976;73.404;2022-07-21T10:55:53;98580.28;;;25.95;40.28
59519;BME280;46994;54.976;73.404;2022-07-21T10:58:24;98579.94;;;25.88;40.64
59519;BME280;46994;54.976;73.404;2022-07-21T11:00:56;98553.00;;;25.59;40.75
59519;BME280;46994;54.976;73.404;2022-07-21T11:03:26;98551.19;;;25.55;41.10
59519;BME280;46994;54.976;73.404;2022-07-21T11:08:35;98569.50;;;25.28;41.64
59519;BME280;46994;54.976;73.404;2022-07-21T11:11:18;98602.13;;;25.38;41.51
59519;BME280;46994;54.976;73.404;2022-07-21T11:19:41;98589.84;;;25.67;40.48
59519;BME280;46994;54.976;73.404;2022-07-21T11:22:20;98593.69;;;25.66;40.80
59519;BME280;46994;54.976;73.404;2022-07-21T11:24:50;98584.50;;;25.62;41.41
59519;BME280;46994;54.976;73.404;2022-07-21T11:27:22;98582.06;;;25.60;41.71
59519;BME280;46994;54.976;73.404;2022-07-21T11:29:52;98548.22;;;25.34;41.45
59519;BME280;46994;54.976;73.404;2022-07-21T11:32:19;98555.34;;;25.43;41.93
59519;BME280;46994;54.976;73.404;2022-07-21T11:37:26;98548.94;;;25.48;42.71
59519;BME280;46994;54.976;73.404;2022-07-21T11:39:53;98573.06;;;25.68;42.51
59519;BME280;46994;54.976;73.404;2022-07-21T11:42:20;98583.56;;;25.66;42.19
59519;BME280;46994;54.976;73.404;2022-07-21T11:44:47;98571.25;;;25.64;42.57
59519;BME280;46994;54.976;73.404;2022-07-21T11:47:15;98561.59;;;25.66;42.59
59519;BME280;46994;54.976;73.404;2022-07-21T11:49:43;98560.66;;;25.71;42.89
59519;BME280;46994;54.976;73.404;2022-07-21T11:52:12;98580.41;;;25.82;42.53
59519;BME280;46994;54.976;73.404;2022-07-21T11:54:46;98575.41;;;25.84;42.79
59519;BME280;46994;54.976;73.404;2022-07-21T11:57:16;98555.53;;;25.78;42.84
59519;BME280;46994;54.976;73.404;2022-07-21T11:59:43;98565.38;;;25.79;42.76
59519;BME280;46994;54.976;73.404;2022-07-21T12:02:18;98557.59;;;25.72;42.04
59519;BME280;46994;54.976;73.404;2022-07-21T12:04:48;98578.63;;;25.86;41.83
59519;BME280;46994;54.976;73.404;2022-07-21T12:09:50;98568.97;;;25.88;42.15
59519;BME280;46994;54.976;73.404;2022-07-21T12:17:49;98597.47;;;26.18;36.59
59519;BME280;46994;54.976;73.404;2022-07-21T12:20:36;98600.72;;;26.29;34.84
59519;BME280;46994;54.976;73.404;2022-07-21T12:23:22;98606.34;;;26.24;34.45
59519;BME280;46994;54.976;73.404;2022-07-21T12:25:49;98595.16;;;26.03;35.65
59519;BME280;46994;54.976;73.404;2022-07-21T12:28:17;98574.66;;;26.09;37.21
59519;BME280;46994;54.976;73.404;2022-07-21T12:30:46;98604.22;;;26.12;36.77
59519;BME280;46994;54.976;73.404;2022-07-21T12:33:15;98617.41;;;25.93;37.15
59519;BME280;46994;54.976;73.404;2022-07-21T12:36:00;98625.97;;;25.60;39.37
59519;BME280;46994;54.976;73.404;2022-07-21T12:38:38;98619.44;;;25.48;40.70
59519;BME280;46994;54.976;73.404;2022-07-21T12:41:09;98611.72;;;25.50;41.29
59519;BME280;46994;54.976;73.404;2022-07-21T12:43:36;98615.00;;;25.29;42.21
59519;BME280;46994;54.976;73.404;2022-07-21T12:48:36;98611.72;;;24.82;43.69
59519;BME280;46994;54.976;73.404;2022-07-21T12:51:15;98640.41;;;24.85;43.22
59519;BME280;46994;54.976;73.404;2022-07-21T12:53:45;98620.41;;;24.62;44.59
59519;BME280;46994;54.976;73.404;2022-07-21T12:56:19;98620.63;;;24.88;43.04
59519;BME280;46994;54.976;73.404;2022-07-21T12:58:47;98638.41;;;25.35;42.03
59519;BME280;46994;54.976;73.404;2022-07-21T13:01:16;98616.59;;;25.61;41.82
59519;BME280;46994;54.976;73.404;2022-07-21T13:03:44;98642.16;;;26.01;41.81
59519;BME280;46994;54.976;73.404;2022-07-21T13:06:11;98647.09;;;26.30;40.14
59519;BME280;46994;54.976;73.404;2022-07-21T13:08:41;98640.19;;;26.42;40.07
59519;BME280;46994;54.976;73.404;2022-07-21T13:11:08;98636.09;;;26.30;39.96
59519;BME280;46994;54.976;73.404;2022-07-21T13:13:36;98636.50;;;26.46;41.43
59519;BME280;46994;54.976;73.404;2022-07-21T13:16:04;98645.09;;;26.79;39.70
59519;BME280;46994;54.976;73.404;2022-07-21T13:18:31;98640.72;;;27.13;39.35
59519;BME280;46994;54.976;73.404;2022-07-21T13:20:58;98629.25;;;27.20;39.51
59519;BME280;46994;54.976;73.404;2022-07-21T13:23:25;98650.56;;;27.49;39.70
59519;BME280;46994;54.976;73.404;2022-07-21T13:25:52;98637.63;;;27.32;39.85
59519;BME280;46994;54.976;73.404;2022-07-21T13:28:18;98648.63;;;27.40;39.55
59519;BME280;46994;54.976;73.404;2022-07-21T13:30:46;98661.91;;;27.47;39.60
59519;BME280;46994;54.976;73.404;2022-07-21T13:33:14;98633.88;;;27.54;39.66
59519;BME280;46994;54.976;73.404;2022-07-21T13:35:42;98665.88;;;28.22;38.85
59519;BME280;46994;54.976;73.404;2022-07-21T13:38:09;98635.66;;;28.05;38.17
59519;BME280;46994;54.976;73.404;2022-07-21T13:40:36;98653.53;;;28.28;38.52